Time;durP1;ratioP1;P1;durP2;ratioP2;P2;SDS_P1;SDS_P2;PMS_P1;PMS_P2;Temp;Humidity;BMP_temperature;BMP_pressure;BME280_temperature;BME280_humidity;BME280_pressure;Samples;Min_cycle;Max_cycle;Signal;HPM_P1;HPM_P2
2023/04/23 00:01:47;;;;;;;2.05;1.88;;;;;;;13.46;66.46;100246.69;6364500;23;20414;-81
2023/04/23 00:04:19;;;;;;;2.00;1.50;;;;;;;13.44;66.47;100245.03;6364335;23;20067;-81
2023/04/23 00:06:51;;;;;;;1.58;1.48;;;;;;;13.44;66.44;100240.63;6365396;23;19997;-82
2023/04/23 00:09:22;;;;;;;1.95;1.52;;;;;;;13.40;66.40;100243.47;6363171;23;20037;-82
2023/04/23 00:11:52;;;;;;;1.13;1.13;;;;;;;13.39;66.42;100245.25;6388242;23;20039;-81
2023/04/23 00:14:23;;;;;;;0.82;0.82;;;;;;;13.38;66.18;100239.16;6363667;23;20471;-82
2023/04/23 00:16:54;;;;;;;0.98;0.88;;;;;;;13.32;66.97;100243.81;6399129;23;20016;-82
2023/04/23 00:19:25;;;;;;;1.00;1.00;;;;;;;13.30;67.05;100246.53;6363454;23;20017;-81
2023/04/23 00:21:55;;;;;;;0.52;0.52;;;;;;;13.32;66.70;100236.75;6364037;23;20041;-82
2023/04/23 00:24:26;;;;;;;0.60;0.60;;;;;;;13.29;66.62;100249.22;6363836;23;20468;-81
2023/04/23 00:26:56;;;;;;;0.82;0.82;;;;;;;13.32;66.40;100249.06;6400368;23;20001;-81
2023/04/23 00:29:27;;;;;;;1.50;1.40;;;;;;;13.25;67.18;100247.66;6363285;23;20025;-81
2023/04/23 00:31:57;;;;;;;0.82;0.82;;;;;;;13.20;66.95;100246.06;6363893;23;20012;-81
2023/04/23 00:34:28;;;;;;;5.18;1.25;;;;;;;13.25;66.51;100237.94;6389826;23;20021;-82
2023/04/23 00:36:58;;;;;;;1.02;0.95;;;;;;;13.25;66.72;100243.22;6391467;23;20001;-81
2023/04/23 00:39:29;;;;;;;1.20;1.10;;;;;;;13.26;66.47;100241.47;6365940;23;20341;-82
2023/04/23 00:42:05;;;;;;;0.75;0.75;;;;;;;13.24;66.17;100241.50;6365827;23;20013;-82
2023/04/23 00:44:36;;;;;;;1.08;1.02;;;;;;;13.20;66.51;100246.06;6366169;23;20096;-81
2023/04/23 00:47:07;;;;;;;3.63;1.17;;;;;;;13.17;66.48;100246.22;6376665;23;20028;-80
2023/04/23 00:49:38;;;;;;;3.70;0.90;;;;;;;13.17;66.27;100233.06;6369980;23;20017;-80
2023/04/23 00:52:08;;;;;;;2.15;2.05;;;;;;;13.17;66.56;100233.06;6390649;23;20009;-81
2023/04/23 00:54:39;;;;;;;1.13;0.95;;;;;;;13.14;66.59;100230.53;6373877;23;20262;-80
2023/04/23 00:57:10;;;;;;;4.35;2.45;;;;;;;13.15;66.30;100226.13;6370888;23;20021;-80
2023/04/23 00:59:41;;;;;;;1.60;1.50;;;;;;;13.15;66.24;100221.72;6366051;23;20017;-81
2023/04/23 01:02:12;;;;;;;0.55;0.55;;;;;;;13.14;66.47;100219.16;6365413;23;20078;-81
2023/04/23 01:04:44;;;;;;;1.55;0.80;;;;;;;13.13;66.39;100217.47;6395459;23;20028;-81
2023/04/23 01:07:14;;;;;;;2.33;1.92;;;;;;;13.08;66.49;100217.66;6403289;23;20023;-80
2023/04/23 01:09:45;;;;;;;2.65;1.92;;;;;;;13.12;66.53;100216.59;6365187;23;20009;-81
2023/04/23 01:12:16;;;;;;;1.42;1.33;;;;;;;13.09;66.52;100208.84;6340786;23;20087;-82
2023/04/23 01:14:47;;;;;;;1.60;1.45;;;;;;;13.10;66.47;100205.25;6365259;23;20009;-81
2023/04/23 01:17:18;;;;;;;1.05;1.05;;;;;;;13.11;66.82;100206.97;6402050;23;20449;-81
2023/04/23 01:19:48;;;;;;;1.63;1.20;;;;;;;13.09;66.12;100208.84;6380957;23;20013;-81
2023/04/23 01:22:19;;;;;;;1.17;1.08;;;;;;;13.09;66.76;100205.34;6401122;23;20059;-82
2023/04/23 01:24:50;;;;;;;1.63;1.25;;;;;;;13.08;66.48;100201.88;6389902;23;20028;-81
2023/04/23 01:27:23;;;;;;;8.50;1.67;;;;;;;13.05;66.37;100202.00;6367035;23;20448;-81
2023/04/23 01:29:55;;;;;;;2.28;1.05;;;;;;;13.03;66.63;100195.94;6393936;23;20025;-81
2023/04/23 01:32:25;;;;;;;1.67;1.58;;;;;;;13.03;66.47;100201.19;6365534;23;20005;-81
2023/04/23 01:34:56;;;;;;;0.55;0.55;;;;;;;12.99;66.29;100194.38;6364264;23;20027;-82
2023/04/23 01:37:28;;;;;;;2.10;2.00;;;;;;;12.98;66.23;100190.03;6366928;23;20632;-81
2023/04/23 01:39:58;;;;;;;2.05;1.85;;;;;;;12.95;66.60;100196.31;6392675;23;20020;-81
2023/04/23 01:42:29;;;;;;;1.77;1.33;;;;;;;12.93;66.45;100197.31;6364675;23;20036;-81
2023/04/23 01:45:01;;;;;;;0.80;0.80;;;;;;;12.93;66.36;100200.78;6364284;23;20013;-81
2023/04/23 01:47:34;;;;;;;0.83;0.83;;;;;;;12.90;66.30;100190.38;6402211;23;20426;-81
2023/04/23 01:50:05;;;;;;;1.48;1.38;;;;;;;12.88;66.18;100193.09;6364033;23;20897;-81
2023/04/23 01:52:35;;;;;;;1.50;1.40;;;;;;;12.88;66.36;100192.25;6340679;23;20425;-81
2023/04/23 01:55:06;;;;;;;1.05;0.95;;;;;;;12.86;66.10;100204.63;6364654;23;20029;-81
2023/04/23 01:57:36;;;;;;;1.38;1.27;;;;;;;12.85;66.29;100192.38;6364376;23;20006;-81
2023/04/23 02:00:10;;;;;;;1.42;1.33;;;;;;;12.84;66.31;100201.19;6362172;23;20020;-81
2023/04/23 02:02:42;;;;;;;0.60;0.60;;;;;;;12.81;66.26;100196.06;6373843;23;20009;-81
2023/04/23 02:05:15;;;;;;;1.67;1.58;;;;;;;12.75;66.03;100195.41;6363964;23;20096;-81
2023/04/23 02:07:48;;;;;;;11.20;1.40;;;;;;;12.73;66.42;100201.66;6375259;23;20005;-81
2023/04/23 02:10:19;;;;;;;0.93;0.93;;;;;;;12.70;66.02;100199.16;6364969;23;20017;-82
2023/04/23 02:12:49;;;;;;;0.68;0.68;;;;;;;12.62;66.30;100191.63;6363095;23;20063;-81
2023/04/23 02:15:20;;;;;;;0.85;0.73;;;;;;;12.62;65.98;100185.50;6363157;23;20013;-81
2023/04/23 02:17:51;;;;;;;1.58;1.48;;;;;;;12.60;66.09;100188.19;6362285;23;20013;-81
2023/04/23 02:20:21;;;;;;;1.25;1.25;;;;;;;12.58;66.03;100193.53;6363047;23;20079;-81
2023/04/23 02:22:52;;;;;;;1.58;1.48;;;;;;;12.52;66.39;100198.19;6397520;23;20009;-80
2023/04/23 02:25:22;;;;;;;1.73;1.63;;;;;;;12.48;66.09;100200.13;6387771;23;20110;-80
2023/04/23 02:27:52;;;;;;;2.03;1.83;;;;;;;12.46;66.02;100188.78;6373763;23;20012;-80
2023/04/23 02:30:24;;;;;;;3.70;2.05;;;;;;;12.41;65.72;100190.78;6361998;23;20025;-80
2023/04/23 02:32:55;;;;;;;2.08;1.88;;;;;;;12.41;66.30;100188.16;6363429;23;20007;-79
2023/04/23 02:35:25;;;;;;;2.33;2.10;;;;;;;12.36;66.08;100190.97;6386457;23;20096;-80
2023/04/23 02:37:56;;;;;;;1.77;1.40;;;;;;;12.29;66.31;100189.53;6398647;23;20330;-79
2023/04/23 02:40:26;;;;;;;1.60;1.50;;;;;;;12.31;66.57;100181.56;6361569;23;20020;-80
2023/04/23 02:42:57;;;;;;;16.63;2.63;;;;;;;12.30;66.67;100179.84;6362916;23;20009;-80
2023/04/23 02:45:27;;;;;;;2.03;1.92;;;;;;;12.22;67.19;100177.56;6361130;23;20013;-80
2023/04/23 02:47:57;;;;;;;1.40;1.33;;;;;;;12.20;67.70;100180.25;6363285;23;20550;-79
2023/04/23 02:50:28;;;;;;;1.42;1.35;;;;;;;12.19;68.21;100181.16;6362619;23;20654;-80
2023/04/23 02:52:58;;;;;;;3.50;1.80;;;;;;;12.23;68.25;100177.50;6361626;23;20249;-79
2023/04/23 02:55:30;;;;;;;2.60;2.40;;;;;;;12.10;69.43;100178.94;6361099;23;20009;-80
2023/04/23 02:58:01;;;;;;;1.40;1.30;;;;;;;12.18;68.85;100170.72;6362734;23;20487;-79
2023/04/23 03:00:31;;;;;;;1.70;1.60;;;;;;;12.17;68.20;100175.13;6360484;23;20083;-80
2023/04/23 03:03:02;;;;;;;1.52;1.42;;;;;;;12.20;67.81;100169.72;6361810;23;20068;-80
2023/04/23 03:05:32;;;;;;;1.73;1.30;;;;;;;12.20;67.63;100180.25;6385565;23;20548;-79
2023/04/23 03:08:03;;;;;;;3.67;1.25;;;;;;;12.14;68.73;100166.53;6398161;23;20008;-80
2023/04/23 03:10:33;;;;;;;2.17;1.55;;;;;;;12.20;68.08;100164.47;6386046;23;20028;-80
2023/04/23 03:13:03;;;;;;;0.82;0.82;;;;;;;12.17;69.43;100161.13;6373035;23;20009;-80
2023/04/23 03:15:34;;;;;;;0.75;0.75;;;;;;;12.20;68.42;100164.47;6360731;23;20017;-80
2023/04/23 03:18:07;;;;;;;4.47;1.38;;;;;;;12.20;68.13;100161.00;6387211;23;20009;-80
2023/04/23 03:20:37;;;;;;;0.98;0.98;;;;;;;12.18;68.05;100155.81;6386454;23;20592;-80
2023/04/23 03:23:08;;;;;;;0.77;0.77;;;;;;;12.21;67.97;100158.28;6398770;23;20074;-80
2023/04/23 03:25:38;;;;;;;3.30;1.65;;;;;;;12.21;67.75;100160.91;6361133;23;20088;-79
2023/04/23 03:28:08;;;;;;;2.22;2.03;;;;;;;12.21;67.57;100168.81;6373246;23;20009;-79
2023/04/23 03:30:39;;;;;;;1.15;1.05;;;;;;;12.23;67.36;100159.09;6359785;23;20457;-80
2023/04/23 03:33:10;;;;;;;1.42;1.33;;;;;;;12.23;67.35;100156.44;6335760;23;20071;-80
2023/04/23 03:35:40;;;;;;;1.00;1.00;;;;;;;12.23;67.28;100148.56;6360146;23;20013;-79
2023/04/23 03:38:11;;;;;;;1.15;0.90;;;;;;;12.26;67.30;100152.81;6398448;23;20009;-80
2023/04/23 03:40:41;;;;;;;1.15;1.05;;;;;;;12.24;67.26;100145.00;6362619;23;20025;-80
2023/04/23 03:43:12;;;;;;;0.93;0.93;;;;;;;12.17;67.74;100154.09;6362350;23;20013;-80
2023/04/23 03:45:42;;;;;;;1.52;1.42;;;;;;;12.18;67.73;100154.94;6389899;23;20078;-80
2023/04/23 03:48:12;;;;;;;0.93;0.93;;;;;;;12.19;67.42;100152.22;6362498;23;20549;-80
2023/04/23 03:50:43;;;;;;;1.02;1.00;;;;;;;12.17;67.36;100159.34;6361155;23;20039;-80
2023/04/23 03:53:13;;;;;;;1.52;1.42;;;;;;;12.16;67.40;100160.28;6396281;23;20019;-79
2023/04/23 03:55:44;;;;;;;1.40;1.20;;;;;;;12.11;67.74;100155.22;6387009;23;20013;-80
2023/04/23 03:58:14;;;;;;;1.05;1.05;;;;;;;12.06;68.17;100157.19;6364009;23;20012;-80
2023/04/23 04:00:45;;;;;;;0.57;0.57;;;;;;;12.12;67.35;100150.78;6363006;23;20019;-80
2023/04/23 04:03:16;;;;;;;1.23;1.23;;;;;;;12.10;67.62;100150.84;6422695;23;20005;-80
2023/04/23 04:05:46;;;;;;;1.48;1.38;;;;;;;12.11;67.17;100142.06;6393960;23;20069;-80
2023/04/23 04:08:17;;;;;;;0.40;0.40;;;;;;;12.11;67.64;100143.81;6385212;23;20005;-80
2023/04/23 04:10:47;;;;;;;1.15;1.15;;;;;;;12.08;67.81;100149.22;6371280;23;20602;-81
2023/04/23 04:13:18;;;;;;;0.70;0.70;;;;;;;12.07;67.68;100147.50;6404204;23;20009;-81
2023/04/23 04:15:49;;;;;;;1.85;1.50;;;;;;;12.03;68.09;100153.81;6416733;23;20561;-81
2023/04/23 04:18:19;;;;;;;3.78;1.90;;;;;;;12.05;67.76;100139.69;6364632;23;20067;-81
2023/04/23 04:20:51;;;;;;;1.40;1.30;;;;;;;12.05;68.03;100146.72;6363044;23;20072;-82
2023/04/23 04:23:21;;;;;;;1.20;1.10;;;;;;;12.04;68.06;100147.63;6364142;23;20389;-81
2023/04/23 04:25:55;;;;;;;1.33;1.23;;;;;;;12.03;68.47;100138.03;6363651;23;20013;-81
2023/04/23 04:28:25;;;;;;;0.68;0.68;;;;;;;12.05;67.79;100141.44;6362967;23;20020;-81
2023/04/23 04:30:56;;;;;;;0.85;0.85;;;;;;;12.02;67.78;100145.06;6361980;23;20020;-80
2023/04/23 04:33:27;;;;;;;2.22;1.70;;;;;;;12.03;67.99;100148.53;6363606;23;20318;-81
2023/04/23 04:35:59;;;;;;;1.25;1.25;;;;;;;12.02;68.17;100144.22;6364059;23;20017;-81
2023/04/23 04:38:29;;;;;;;1.75;1.65;;;;;;;12.00;68.18;100151.31;6388833;23;20061;-81
2023/04/23 04:41:01;;;;;;;1.98;1.85;;;;;;;12.00;68.37;100156.59;6390190;23;20022;-81
2023/04/23 04:43:31;;;;;;;0.98;0.90;;;;;;;12.00;68.28;100159.22;6364167;23;20091;-82
2023/04/23 04:46:02;;;;;;;1.33;1.23;;;;;;;12.02;68.09;100150.34;6363795;23;20025;-81
2023/04/23 04:48:33;;;;;;;0.90;0.90;;;;;;;12.03;68.18;100148.53;6364326;23;20017;-81
2023/04/23 04:51:03;;;;;;;1.20;1.20;;;;;;;12.02;68.48;100155.59;6362574;23;20060;-81
2023/04/23 04:53:34;;;;;;;1.27;0.75;;;;;;;12.00;68.49;100157.41;6372617;23;20354;-81
2023/04/23 04:56:05;;;;;;;0.68;0.68;;;;;;;12.00;70.03;100161.84;6391884;23;20521;-81
2023/04/23 04:58:35;;;;;;;8.52;1.90;;;;;;;12.05;68.77;100163.38;6364540;23;20066;-81
2023/04/23 05:01:06;;;;;;;1.30;1.20;;;;;;;12.03;68.75;100159.06;6362462;23;20009;-81
2023/04/23 05:03:37;;;;;;;1.48;1.40;;;;;;;12.04;68.78;100163.41;6365431;23;20027;-81
2023/04/23 05:06:08;;;;;;;0.80;0.80;;;;;;;12.05;68.60;100159.84;6388811;23;20010;-81
2023/04/23 05:08:38;;;;;;;0.30;0.30;;;;;;;12.04;69.08;100158.16;6398935;23;20013;-81
2023/04/23 05:11:09;;;;;;;1.80;1.15;;;;;;;12.06;69.04;100154.56;6364231;23;20092;-81
2023/04/23 05:13:40;;;;;;;2.17;1.75;;;;;;;12.06;68.82;100149.31;6389847;23;20036;-81
2023/04/23 05:16:10;;;;;;;1.05;1.05;;;;;;;12.09;68.88;100146.53;6391797;23;20021;-80
2023/04/23 05:18:41;;;;;;;1.20;1.10;;;;;;;12.08;69.64;100149.22;6373327;23;20024;-81
2023/04/23 05:21:12;;;;;;;1.73;1.63;;;;;;;12.10;68.86;100150.03;6364693;23;20175;-81
2023/04/23 05:23:42;;;;;;;1.40;1.30;;;;;;;12.12;69.42;100150.78;6364583;23;20136;-81
2023/04/23 05:26:13;;;;;;;0.65;0.65;;;;;;;12.14;68.86;100142.84;6338167;23;20013;-81
2023/04/23 05:28:43;;;;;;;0.65;0.65;;;;;;;12.19;68.54;100154.84;6396659;23;20009;-81
2023/04/23 05:31:14;;;;;;;1.48;1.38;;;;;;;12.20;69.89;100159.19;6387304;23;20131;-81
2023/04/23 05:33:45;;;;;;;1.08;1.00;;;;;;;12.24;68.92;100152.91;6366707;23;20032;-81
2023/04/23 05:36:17;;;;;;;1.27;1.23;;;;;;;12.23;68.77;100164.34;6366087;23;20013;-81
2023/04/23 05:38:47;;;;;;;0.70;0.70;;;;;;;12.23;69.28;100160.88;6366978;23;20015;-81
2023/04/23 05:41:18;;;;;;;0.90;0.90;;;;;;;12.21;69.53;100155.66;6365241;23;20127;-81
2023/04/23 05:43:48;;;;;;;1.63;1.30;;;;;;;12.21;69.48;100153.03;6384154;23;20005;-80
2023/04/23 05:46:18;;;;;;;1.65;1.55;;;;;;;12.28;69.68;100158.88;6377789;23;20013;-81
2023/04/23 05:48:49;;;;;;;1.85;1.75;;;;;;;12.24;69.79;100157.28;6372278;23;20476;-81
2023/04/23 05:51:20;;;;;;;1.88;1.77;;;;;;;12.24;69.86;100166.06;6369305;23;20013;-82
2023/04/23 05:53:51;;;;;;;1.73;1.63;;;;;;;12.22;71.05;100173.16;6368932;23;20397;-81
2023/04/23 05:56:21;;;;;;;0.77;0.77;;;;;;;12.28;70.53;100166.78;6368883;23;20343;-81
2023/04/23 05:58:52;;;;;;;0.60;0.60;;;;;;;12.37;69.28;100160.25;6368907;23;20029;-81
2023/04/23 06:01:23;;;;;;;1.05;0.93;;;;;;;12.40;69.07;100160.97;6365692;23;20368;-81
2023/04/23 06:03:53;;;;;;;0.80;0.80;;;;;;;12.43;69.12;100155.59;6393548;23;20369;-81
2023/04/23 06:06:24;;;;;;;0.75;0.75;;;;;;;12.45;69.35;100155.50;6368546;23;20013;-82
2023/04/23 06:08:55;;;;;;;1.30;1.20;;;;;;;12.48;69.62;100158.00;6366508;23;20013;-82
2023/04/23 06:11:26;;;;;;;0.93;0.88;;;;;;;12.51;69.26;100155.25;6391593;23;20405;-83
2023/04/23 06:13:57;;;;;;;0.50;0.50;;;;;;;12.57;68.84;100152.34;6366173;23;20092;-84
2023/04/23 06:16:27;;;;;;;0.73;0.73;;;;;;;12.54;70.38;100147.22;6392331;23;20550;-83
2023/04/23 06:18:58;;;;;;;0.68;0.68;;;;;;;12.62;69.16;100153.91;6391281;23;20023;-83
2023/04/23 06:21:28;;;;;;;0.45;0.45;;;;;;;12.62;69.47;100153.91;6367018;23;20048;-83
2023/04/23 06:23:59;;;;;;;1.13;1.02;;;;;;;12.65;69.51;100148.50;6386344;23;20020;-83
2023/04/23 06:26:29;;;;;;;2.05;1.40;;;;;;;12.66;70.22;100158.97;6366797;23;20033;-83
2023/04/23 06:29:00;;;;;;;1.58;1.42;;;;;;;12.72;70.09;100152.56;6366591;23;20063;-83
2023/04/23 06:31:30;;;;;;;1.65;1.55;;;;;;;12.76;70.63;100154.16;6362962;23;20025;-82
2023/04/23 06:34:00;;;;;;;11.60;1.10;;;;;;;12.78;70.01;100151.44;6397684;23;20421;-83
2023/04/23 06:36:31;;;;;;;0.70;0.70;;;;;;;12.78;70.10;100159.34;6367725;23;20103;-83
2023/04/23 06:39:01;;;;;;;0.50;0.50;;;;;;;12.77;70.91;100162.91;6368593;23;20130;-83
2023/04/23 06:41:32;;;;;;;0.52;0.52;;;;;;;12.83;71.21;100158.22;6393758;23;20024;-83
2023/04/23 06:44:02;;;;;;;1.27;1.00;;;;;;;12.90;71.00;100154.38;6367627;23;20025;-84
2023/04/23 06:46:33;;;;;;;1.08;0.80;;;;;;;12.89;70.89;100146.56;6368781;23;20016;-83
2023/04/23 06:49:03;;;;;;;1.35;1.25;;;;;;;12.94;71.63;100148.94;6397525;23;20017;-85
2023/04/23 06:51:34;;;;;;;0.50;0.50;;;;;;;13.00;70.18;100151.31;6366726;23;20100;-84
2023/04/23 06:54:04;;;;;;;1.15;1.05;;;;;;;13.02;71.38;100145.06;6364661;23;20450;-83
2023/04/23 06:56:35;;;;;;;0.80;0.80;;;;;;;13.00;71.77;100138.16;6366588;23;20016;-83
2023/04/23 06:59:05;;;;;;;1.10;1.00;;;;;;;13.02;72.08;100129.25;6361905;23;20040;-83
2023/04/23 07:01:36;;;;;;;0.45;0.43;;;;;;;12.96;72.43;100136.56;6368635;23;20457;-83
2023/04/23 07:04:07;;;;;;;0.93;0.93;;;;;;;12.77;73.86;100132.16;6342303;23;20017;-84
2023/04/23 07:06:37;;;;;;;0.60;0.60;;;;;;;12.90;72.85;100132.44;6402494;23;19997;-85
2023/04/23 07:09:08;;;;;;;1.05;1.00;;;;;;;12.85;73.77;100130.03;6361213;23;20103;-84
2023/04/23 07:11:38;;;;;;;0.38;0.38;;;;;;;12.97;73.03;100127.75;6392039;23;20323;-84
2023/04/23 07:14:09;;;;;;;1.17;1.00;;;;;;;13.04;72.24;100123.91;6360791;23;20033;-83
2023/04/23 07:16:39;;;;;;;0.70;0.70;;;;;;;13.08;72.08;100128.13;6365901;23;20009;-85
2023/04/23 07:19:10;;;;;;;0.60;0.60;;;;;;;13.07;71.85;100124.63;6363743;23;20052;-86
2023/04/23 07:21:40;;;;;;;0.57;0.57;;;;;;;13.14;71.48;100119.91;6420981;23;20001;-85
2023/04/23 07:24:11;;;;;;;0.57;0.57;;;;;;;13.10;73.34;100118.34;6371344;23;20357;-84
2023/04/23 07:26:41;;;;;;;0.40;0.40;;;;;;;13.07;72.85;100129.88;6379201;23;20001;-84
2023/04/23 07:29:13;;;;;;;0.57;0.57;;;;;;;13.09;72.77;100128.97;6366355;23;20100;-84
2023/04/23 07:31:43;;;;;;;0.50;0.50;;;;;;;13.15;72.54;100121.63;6366761;23;20005;-85
2023/04/23 07:34:14;;;;;;;0.93;0.90;;;;;;;13.12;73.47;100120.94;6362985;23;20032;-84
2023/04/23 07:36:44;;;;;;;0.55;0.55;;;;;;;13.17;72.27;100121.56;6367410;23;20012;-85
2023/04/23 07:39:15;;;;;;;1.20;1.08;;;;;;;13.18;72.73;100116.19;6366244;23;20017;-85
2023/04/23 07:41:45;;;;;;;0.60;0.60;;;;;;;13.12;73.67;100105.97;6367369;23;20069;-85
2023/04/23 07:44:16;;;;;;;0.55;0.55;;;;;;;13.13;73.64;100096.31;6366254;23;20013;-85
2023/04/23 07:46:47;;;;;;;1.13;1.02;;;;;;;13.10;74.43;100092.00;6368873;23;19997;-84
2023/04/23 07:49:17;;;;;;;20.02;1.05;;;;;;;13.14;73.99;100098.84;6365884;23;20079;-85
2023/04/23 07:51:48;;;;;;;0.30;0.30;;;;;;;13.20;73.68;100103.81;6377137;23;20000;-84
2023/04/23 07:54:19;;;;;;;2.28;0.95;;;;;;;13.19;74.14;100096.84;6364627;23;20027;-84
2023/04/23 07:56:49;;;;;;;0.52;0.52;;;;;;;13.27;73.54;100098.25;6367437;23;20020;-85
2023/04/23 07:59:20;;;;;;;0.80;0.80;;;;;;;13.37;72.76;100088.97;6366708;23;20013;-84
2023/04/23 08:01:50;;;;;;;0.85;0.85;;;;;;;13.33;72.42;100087.44;6365625;23;20013;-84
2023/04/23 08:04:21;;;;;;;0.30;0.30;;;;;;;13.25;72.98;100090.44;6371145;23;20060;-84
2023/04/23 08:06:51;;;;;;;1.08;1.05;;;;;;;13.32;72.74;100088.34;6366604;23;20055;-85
2023/04/23 08:09:22;;;;;;;0.30;0.30;;;;;;;13.35;72.26;100083.78;6365695;23;20017;-85
2023/04/23 08:11:53;;;;;;;4.18;1.02;;;;;;;13.33;72.66;100087.44;6366279;23;20464;-85
2023/04/23 08:14:23;;;;;;;0.40;0.40;;;;;;;13.38;72.43;100080.16;6397746;23;20017;-84
2023/04/23 08:16:54;;;;;;;0.70;0.70;;;;;;;13.50;72.53;100084.00;6366544;23;20070;-85
2023/04/23 08:19:25;;;;;;;0.82;0.82;;;;;;;13.51;72.99;100085.69;6365940;23;20017;-85
2023/04/23 08:21:56;;;;;;;11.07;2.38;;;;;;;13.51;72.26;100086.53;6368290;23;20005;-84
2023/04/23 08:24:26;;;;;;;0.20;0.20;;;;;;;13.54;71.55;100075.84;6368539;23;20100;-85
2023/04/23 08:26:57;;;;;;;0.50;0.50;;;;;;;13.60;71.11;100076.47;6371255;23;20001;-84
2023/04/23 08:29:27;;;;;;;0.40;0.40;;;;;;;13.64;71.39;100080.66;6369036;23;20009;-84
2023/04/23 08:31:59;;;;;;;0.20;0.20;;;;;;;13.71;72.00;100081.22;6367723;23;20024;-84
2023/04/23 08:34:29;;;;;;;0.45;0.45;;;;;;;13.79;71.97;100086.97;6392993;23;20013;-84
2023/04/23 08:37:00;;;;;;;0.40;0.40;;;;;;;13.83;71.29;100076.19;6369466;23;20091;-85
2023/04/23 08:39:32;;;;;;;0.30;0.30;;;;;;;13.92;70.56;100079.28;6368736;23;20020;-85
2023/04/23 08:42:10;;;;;;;2.05;0.77;;;;;;;13.95;71.41;100073.81;6367771;23;20064;-85
2023/04/23 08:44:42;;;;;;;1.20;0.82;;;;;;;14.05;71.65;100074.22;6367473;23;20122;-84
2023/04/23 08:47:16;;;;;;;0.32;0.32;;;;;;;14.05;71.33;100077.72;6370006;23;20088;-85
2023/04/23 08:49:52;;;;;;;0.40;0.40;;;;;;;14.07;68.96;100070.56;6371642;23;20020;-84
2023/04/23 08:52:24;;;;;;;0.50;0.50;;;;;;;14.13;69.38;100064.97;6410030;23;20013;-85
2023/04/23 08:54:59;;;;;;;1.10;1.10;;;;;;;14.23;70.18;100067.97;6395803;23;20465;-83
2023/04/23 08:57:30;;;;;;;0.30;0.30;;;;;;;14.27;70.59;100063.38;6385757;23;19997;-85
2023/04/23 09:00:05;;;;;;;0.30;0.30;;;;;;;14.32;70.58;100066.66;6392873;23;20008;-84
2023/04/23 09:02:38;;;;;;;0.30;0.30;;;;;;;14.44;69.71;100068.59;6396425;23;20009;-85
2023/04/23 09:05:09;;;;;;;0.50;0.50;;;;;;;14.44;69.30;100070.41;6390108;23;20012;-84
2023/04/23 09:07:41;;;;;;;1.73;1.33;;;;;;;14.40;69.14;100067.09;6397656;23;20001;-83
2023/04/23 09:10:13;;;;;;;0.43;0.43;;;;;;;14.46;68.13;100065.91;6395621;23;20005;-84
2023/04/23 09:12:43;;;;;;;0.30;0.30;;;;;;;14.51;68.46;100061.22;6392212;23;20061;-84
2023/04/23 09:15:14;;;;;;;0.55;0.55;;;;;;;14.62;68.02;100058.88;6377175;23;20024;-84
2023/04/23 09:17:46;;;;;;;0.40;0.40;;;;;;;14.67;68.22;100063.06;6372380;23;20013;-83
2023/04/23 09:20:16;;;;;;;0.30;0.30;;;;;;;14.69;66.98;100056.75;6369416;23;20060;-84
2023/04/23 09:22:53;;;;;;;0.38;0.38;;;;;;;14.79;67.88;100049.19;6369758;23;20005;-84
2023/04/23 09:25:23;;;;;;;0.47;0.47;;;;;;;14.86;66.59;100050.56;6370438;23;20021;-83
2023/04/23 09:27:57;;;;;;;0.88;0.80;;;;;;;14.87;65.99;100041.69;6377405;23;20005;-84
2023/04/23 09:30:28;;;;;;;0.43;0.43;;;;;;;15.00;65.16;100035.72;6372323;23;20017;-84
2023/04/23 09:32:58;;;;;;;0.40;0.40;;;;;;;15.03;66.40;100040.84;6368768;23;20098;-84
2023/04/23 09:35:31;;;;;;;0.30;0.30;;;;;;;15.08;65.15;100038.75;6366033;23;20062;-82
2023/04/23 09:38:06;;;;;;;0.45;0.45;;;;;;;15.20;63.00;100043.38;6343993;23;20043;-84
2023/04/23 09:40:37;;;;;;;0.60;0.60;;;;;;;15.25;63.90;100032.50;6392314;23;20581;-84
2023/04/23 09:43:09;;;;;;;0.43;0.43;;;;;;;15.34;63.17;100034.63;6393015;23;20009;-83
2023/04/23 09:45:48;;;;;;;0.30;0.30;;;;;;;15.38;61.81;100030.88;6367190;23;20096;-84
2023/04/23 09:48:20;;;;;;;0.20;0.20;;;;;;;15.36;61.84;100026.63;6370745;23;20032;-84
2023/04/23 09:50:54;;;;;;;0.20;0.20;;;;;;;15.37;61.27;100023.88;6369618;23;20017;-84
2023/04/23 09:53:25;;;;;;;0.30;0.30;;;;;;;15.40;60.53;100034.28;6374274;23;20005;-83
2023/04/23 09:55:56;;;;;;;0.32;0.32;;;;;;;15.46;60.53;100024.28;6372580;23;20433;-84
2023/04/23 09:58:26;;;;;;;0.47;0.47;;;;;;;15.58;61.44;100011.19;6370790;23;20020;-84
2023/04/23 10:01:06;;;;;;;0.20;0.20;;;;;;;15.57;60.86;100006.84;6372756;23;20357;-84
2023/04/23 10:03:42;;;;;;;1.00;0.52;;;;;;;15.58;60.65;100013.84;6370471;23;20016;-83
2023/04/23 10:06:14;;;;;;;0.20;0.20;;;;;;;15.62;59.18;100017.16;6368580;23;20048;-84
2023/04/23 10:08:45;;;;;;;0.20;0.20;;;;;;;15.68;59.75;100011.47;6373015;23;20012;-84
2023/04/23 10:11:15;;;;;;;0.38;0.38;;;;;;;15.72;59.19;100007.72;6369597;23;20035;-83
2023/04/23 10:13:46;;;;;;;0.30;0.30;;;;;;;15.75;59.54;100014.63;6376455;23;20004;-84
2023/04/23 10:16:19;;;;;;;0.38;0.38;;;;;;;15.74;59.76;100016.41;6400180;23;20413;-85
2023/04/23 10:18:51;;;;;;;3.42;1.75;;;;;;;15.78;57.71;100018.88;6374563;23;20025;-85
2023/04/23 10:21:27;;;;;;;0.47;0.47;;;;;;;15.78;57.02;100014.44;6362229;23;20088;-85
2023/04/23 10:24:01;;;;;;;0.20;0.20;;;;;;;15.76;57.09;100012.81;6402335;23;20040;-84
2023/04/23 10:26:33;;;;;;;0.30;0.30;;;;;;;15.83;57.96;100015.03;6401042;23;20013;-85
2023/04/23 10:29:18;;;;;;;0.20;0.20;;;;;;;15.83;57.31;100006.19;6376471;23;20008;-87
2023/04/23 10:31:55;;;;;;;0.20;0.20;;;;;;;15.86;58.01;100004.28;6372498;23;20009;-84
2023/04/23 10:34:27;;;;;;;0.73;0.73;;;;;;;15.88;58.04;100005.03;6387292;23;20008;-85
2023/04/23 10:37:00;;;;;;;0.25;0.25;;;;;;;15.98;58.87;100001.81;6383669;23;20055;-85
2023/04/23 10:39:32;;;;;;;;;;;;;;;16.10;59.10;100001.06;6410650;23;20032;-85
2023/04/23 10:42:04;;;;;;;0.30;0.30;;;;;;;16.16;57.31;100002.47;6373301;23;19952;-85
2023/04/23 10:44:36;;;;;;;0.20;0.20;;;;;;;16.18;58.04;99988.22;6370618;23;20373;-86
2023/04/23 10:47:14;;;;;;;0.20;0.20;;;;;;;16.17;55.29;99991.81;6396062;23;19998;-85
2023/04/23 10:49:45;;;;;;;0.20;0.20;;;;;;;16.21;55.07;99992.47;6370879;23;20016;-84
2023/04/23 10:52:17;;;;;;;2.28;0.77;;;;;;;16.14;53.92;99988.50;6395474;23;20017;-84
2023/04/23 10:54:55;;;;;;;0.30;0.30;;;;;;;16.19;54.25;99989.06;6371409;23;20009;-84
2023/04/23 10:57:25;;;;;;;0.20;0.20;;;;;;;16.25;54.06;99985.19;6396459;23;20496;-85
2023/04/23 10:59:57;;;;;;;0.25;0.25;;;;;;;16.28;54.76;99983.19;6395592;23;20020;-84
2023/04/23 11:02:42;;;;;;;0.20;0.20;;;;;;;16.34;54.67;99971.38;6370338;23;20124;-84
2023/04/23 11:05:14;;;;;;;0.20;0.20;;;;;;;16.46;55.46;99969.75;6402199;23;20013;-85
2023/04/23 11:08:05;;;;;;;0.20;0.20;;;;;;;16.49;54.23;99967.75;6375453;23;20036;-84
2023/04/23 11:10:55;;;;;;;0.30;0.30;;;;;;;16.53;54.16;99960.44;6402994;23;20540;-84
2023/04/23 11:13:28;;;;;;;0.22;0.22;;;;;;;16.62;55.39;99962.50;6373975;23;20001;-86
2023/04/23 11:16:21;;;;;;;0.55;0.55;;;;;;;16.77;54.66;99957.16;6398233;23;20355;-85
2023/04/23 11:19:02;;;;;;;0.20;0.20;;;;;;;16.77;53.97;99959.81;6397447;23;20108;-84
2023/04/23 11:22:12;;;;;;;0.50;0.50;;;;;;;16.88;55.15;99948.50;6373020;23;20032;-84
2023/04/23 11:24:44;;;;;;;0.20;0.20;;;;;;;16.93;50.93;99946.44;6372094;23;20385;-85
2023/04/23 11:27:17;;;;;;;0.35;0.35;;;;;;;17.01;50.23;99943.28;6374680;23;20003;-85
2023/04/23 11:29:47;;;;;;;0.20;0.20;;;;;;;17.02;50.47;99942.34;6373157;23;20005;-83
2023/04/23 11:32:18;;;;;;;0.50;0.40;;;;;;;17.10;51.41;99938.22;6371190;23;20096;-84
2023/04/23 11:34:49;;;;;;;0.20;0.20;;;;;;;17.18;50.96;99935.06;6397967;23;20026;-84
2023/04/23 11:37:20;;;;;;;0.20;0.20;;;;;;;17.08;49.41;99928.66;6399405;23;20091;-83
2023/04/23 11:39:50;;;;;;;0.30;0.30;;;;;;;17.09;50.24;99933.00;6373199;23;20017;-85
2023/04/23 11:42:21;;;;;;;0.20;0.20;;;;;;;17.20;50.39;99921.69;6398237;23;20009;-84
2023/04/23 11:44:51;;;;;;;0.38;0.38;;;;;;;17.22;48.39;99925.97;6404657;23;20005;-84
2023/04/23 11:47:24;;;;;;;0.20;0.20;;;;;;;17.22;48.81;99909.19;6374452;23;20005;-85